Time;durP1;ratioP1;P1;durP2;ratioP2;P2;SDS_P1;SDS_P2;PMS_P1;PMS_P2;Temp;Humidity;BMP_temperature;BMP_pressure;BME280_temperature;BME280_humidity;BME280_pressure;Samples;Min_cycle;Max_cycle;Signal;HPM_P1;HPM_P2
2022/04/21 00:03:44;;;;;;;15.33;9.20;;;4.80;79.40;;;2.89;65.46;99846.44;10335176;28;97469;-88
2022/04/21 00:08:48;;;;;;;14.33;8.90;;;4.80;79.50;;;2.85;65.21;99841.56;10333752;28;96469;-88
2022/04/21 00:13:50;;;;;;;14.77;10.17;;;4.70;79.70;;;2.80;65.72;99834.06;10332649;28;97218;-87
2022/04/21 00:18:53;;;;;;;15.87;10.33;;;4.70;81.20;;;2.76;66.11;99830.03;10331304;28;97740;-87
2022/04/21 00:23:56;;;;;;;15.30;10.07;;;4.70;81.80;;;2.67;66.66;99828.16;10310390;28;96628;-87
2022/04/21 00:28:59;;;;;;;14.57;9.07;;;4.60;83.10;;;2.64;67.00;99833.69;10309596;28;97059;-88
2022/04/21 00:34:02;;;;;;;17.43;9.37;;;4.50;84.10;;;2.55;67.37;99832.63;10330171;28;97651;-88
2022/04/21 00:39:05;;;;;;;17.53;10.30;;;4.40;84.80;;;2.51;67.95;99833.81;10312854;28;96648;-88
2022/04/21 00:44:08;;;;;;;15.07;10.63;;;4.40;85.60;;;2.48;67.73;99833.25;10356489;28;96714;-88
2022/04/21 00:49:12;;;;;;;19.13;10.87;;;4.30;86.10;;;2.44;67.50;99821.34;10341375;28;97488;-88
2022/04/21 00:54:16;;;;;;;16.40;9.67;;;4.30;86.20;;;2.41;67.60;99831.13;10308290;28;96653;-88
2022/04/21 00:59:19;;;;;;;16.60;10.10;;;4.30;87.70;;;2.38;67.75;99839.25;10341040;28;96586;-88
2022/04/21 01:04:22;;;;;;;15.30;10.70;;;4.30;88.80;;;2.35;68.27;99839.50;10318177;28;96690;-88
2022/04/21 01:09:25;;;;;;;14.93;8.97;;;4.20;88.90;;;2.31;68.27;99845.09;10317639;28;96423;-88
2022/04/21 01:14:30;;;;;;;15.47;10.17;;;4.20;89.60;;;2.23;68.96;99835.25;10334114;28;96581;-87
2022/04/21 01:19:34;;;;;;;16.03;9.57;;;4.10;91.30;;;2.27;69.55;99844.50;10340281;28;96637;-88
2022/04/21 01:24:38;;;;;;;15.80;10.33;;;4.10;91.50;;;2.31;69.99;99845.94;10313473;28;96515;-87
2022/04/21 01:29:43;;;;;;;19.93;10.40;;;4.10;90.90;;;2.30;70.43;99839.03;10366484;28;97413;-87
2022/04/21 01:34:46;;;;;;;15.23;10.20;;;4.10;92.00;;;2.26;69.83;99842.84;10307718;28;97758;-88
2022/04/21 01:45:10;;;;;;;15.37;9.20;;;4.00;92.40;;;2.11;70.25;99831.81;10323221;28;97461;-89
2022/04/21 01:50:14;;;;;;;13.83;9.70;;;4.00;94.20;;;2.07;70.73;99835.63;10329775;28;96603;-86
2022/04/21 01:55:17;;;;;;;15.53;10.27;;;3.90;93.50;;;2.07;70.56;99840.03;10293906;28;98558;-88
2022/04/21 02:00:20;;;;;;;14.53;8.70;;;3.90;93.60;;;1.99;70.69;99830.19;10348064;28;96694;-89
2022/04/21 02:05:23;;;;;;;15.77;10.40;;;3.90;95.10;;;1.95;71.32;99820.06;10296232;28;96676;-88
2022/04/21 02:10:26;;;;;;;15.17;10.07;;;3.80;95.30;;;1.91;71.28;99814.22;10302682;28;99514;-88
2022/04/21 02:15:29;;;;;;;17.67;11.27;;;3.70;95.70;;;1.87;71.26;99813.63;10303580;28;97042;-88
2022/04/21 02:20:32;;;;;;;17.57;10.90;;;3.70;95.10;;;1.88;71.14;99812.69;10332914;28;96374;-88
2022/04/21 02:25:35;;;;;;;15.17;10.33;;;3.70;94.90;;;1.85;71.50;99810.28;10306835;28;97198;-88
2022/04/21 02:30:38;;;;;;;14.87;10.00;;;3.70;95.70;;;1.81;71.71;99808.88;10304779;28;96766;-88
2022/04/21 02:35:41;;;;;;;18.77;10.20;;;3.60;96.20;;;1.75;71.94;99806.75;10330946;28;96448;-88
2022/04/21 02:40:45;;;;;;;15.30;9.97;;;3.60;96.40;;;1.72;71.92;99803.53;10312061;28;96567;-88
2022/04/21 02:45:48;;;;;;;18.47;12.07;;;3.60;96.40;;;1.67;72.20;99801.25;10302138;28;98311;-88
2022/04/21 02:50:51;;;;;;;18.37;11.53;;;3.60;96.60;;;1.67;72.65;99803.88;10308154;28;96916;-88
2022/04/21 03:01:16;;;;;;;18.80;12.02;;;3.60;97.10;;;1.74;73.26;99810.34;10336190;28;96514;-88
2022/04/21 03:06:19;;;;;;;18.20;12.27;;;3.60;97.20;;;1.75;73.70;99814.63;10332342;28;96556;-88
2022/04/21 03:11:22;;;;;;;18.87;12.03;;;3.60;97.80;;;1.75;73.66;99811.16;10340585;28;97071;-88
2022/04/21 03:16:25;;;;;;;16.73;10.30;;;3.60;99.40;;;1.78;74.29;99803.88;10300659;28;96447;-88
2022/04/21 03:26:52;;;;;;;15.40;9.93;;;3.60;99.40;;;2.07;73.86;99813.84;10318212;28;96696;-88
2022/04/21 03:31:55;;;;;;;18.00;9.67;;;3.80;99.40;;;2.14;73.51;99809.75;10311555;28;96702;-88
2022/04/21 03:36:58;;;;;;;15.43;9.60;;;3.80;99.20;;;2.13;73.40;99808.09;10334753;28;96514;-87
2022/04/21 03:42:03;;;;;;;19.13;10.20;;;3.90;98.40;;;2.13;73.01;99808.09;10354379;28;96614;-88
2022/04/21 03:47:07;;;;;;;16.77;10.60;;;3.90;98.60;;;2.04;72.87;99808.81;10314638;28;98883;-87
2022/04/21 03:52:11;;;;;;;16.67;10.57;;;3.90;98.40;;;1.96;72.92;99813.84;10337418;28;97284;-88
2022/04/21 03:57:14;;;;;;;13.80;9.73;;;3.80;98.70;;;1.90;72.90;99822.19;10322490;28;97511;-88
2022/04/21 04:02:17;;;;;;;16.77;10.33;;;3.70;98.30;;;1.85;73.55;99819.94;10331341;28;98456;-88
2022/04/21 04:12:42;;;;;;;18.10;11.55;;;3.70;99.50;;;1.78;74.03;99821.38;10324210;28;97710;-87
2022/04/21 04:17:46;;;;;;;19.00;11.97;;;3.60;99.90;;;1.77;74.19;99819.72;10340671;28;96545;-87
2022/04/21 04:22:49;;;;;;;19.73;12.50;;;3.60;99.90;;;1.70;74.47;99822.00;10311987;28;96608;-88
2022/04/21 04:27:52;;;;;;;24.73;12.30;;;3.50;99.90;;;1.68;74.38;99833.53;10329282;28;96584;-87
2022/04/21 04:33:00;;;;;;;22.37;13.40;;;3.50;99.90;;;1.68;74.72;99839.63;10318725;28;96558;-88
2022/04/21 04:38:03;;;;;;;20.37;13.07;;;3.50;99.90;;;1.74;74.53;99838.28;10334112;28;96913;-87
2022/04/21 04:43:06;;;;;;;26.30;13.30;;;3.50;99.90;;;1.78;75.35;99834.47;10309885;28;97782;-87
2022/04/21 04:48:09;;;;;;;23.33;13.47;;;3.60;99.90;;;1.91;75.42;99843.03;10367702;28;98699;-87
2022/04/21 04:53:11;;;;;;;16.73;10.70;;;3.70;99.90;;;2.00;75.34;99838.88;10347687;28;98615;-87
2022/04/21 04:58:15;;;;;;;19.53;11.97;;;3.70;99.90;;;2.10;76.04;99840.66;10297000;28;96485;-88
2022/04/21 05:03:19;;;;;;;16.37;10.57;;;3.80;99.90;;;2.25;76.00;99843.81;10320187;28;98608;-87
2022/04/21 05:08:22;;;;;;;16.57;10.93;;;3.90;99.90;;;2.39;74.89;99850.56;10340679;28;98648;-88
2022/04/21 05:13:25;;;;;;;18.50;11.93;;;4.00;99.90;;;2.51;74.65;99851.34;10326702;28;96769;-88
2022/04/21 05:18:28;;;;;;;18.47;11.73;;;4.10;99.90;;;2.69;74.53;99841.97;10330588;28;98222;-88
2022/04/21 05:23:34;;;;;;;18.20;11.53;;;4.20;99.90;;;2.89;73.98;99848.22;10333454;28;97846;-87
2022/04/21 05:28:37;;;;;;;20.47;12.33;;;4.40;99.90;;;3.15;73.45;99848.66;10311092;28;96625;-87
2022/04/21 05:33:43;;;;;;;17.93;12.50;;;4.60;99.90;;;3.42;73.03;99856.00;10325003;28;96539;-88
2022/04/21 05:38:49;;;;;;;21.53;13.53;;;4.80;99.90;;;3.67;72.75;99854.75;10339499;28;96600;-88
2022/04/21 05:43:53;;;;;;;23.57;14.03;;;5.10;99.90;;;3.89;71.73;99853.69;10312860;28;96539;-87
2022/04/21 05:48:56;;;;;;;22.90;12.37;;;5.30;99.90;;;4.13;70.72;99845.47;10332487;28;98004;-88
2022/04/21 05:54:06;;;;;;;19.97;14.07;;;5.60;99.60;;;4.36;69.80;99846.06;10330206;28;96545;-88
2022/04/21 05:59:09;;;;;;;22.07;13.47;;;5.80;99.00;;;4.64;69.61;99833.91;10294497;28;96530;-88
2022/04/21 06:04:12;;;;;;;22.17;13.63;;;6.00;98.70;;;4.89;68.29;99840.41;10311142;28;96848;-88
2022/04/21 06:09:15;;;;;;;21.03;13.77;;;6.30;97.70;;;5.12;67.45;99838.28;10291182;28;96460;-89
2022/04/21 06:14:18;;;;;;;22.73;14.10;;;6.50;97.40;;;5.43;67.24;99831.00;10328722;28;96889;-90
2022/04/21 06:19:20;;;;;;;17.50;11.67;;;6.80;97.10;;;5.73;65.89;99843.91;10340195;28;96569;-87
2022/04/21 06:24:23;;;;;;;21.00;13.77;;;7.10;96.40;;;6.03;65.72;99824.38;10293654;28;97680;-89
2022/04/21 06:29:26;;;;;;;24.17;12.13;;;7.40;95.70;;;6.31;64.62;99826.97;10293237;28;96762;-88
2022/04/21 06:34:32;;;;;;;22.73;12.33;;;7.60;95.10;;;6.60;63.95;99822.31;10293319;28;96506;-89
2022/04/21 06:39:35;;;;;;;19.97;11.93;;;7.90;94.50;;;6.95;63.47;99815.31;10334665;28;96488;-87
2022/04/21 06:50:01;;;;;;;26.35;13.20;;;8.60;93.60;;;7.63;62.07;99811.94;10366965;28;97568;-89
2022/04/21 06:55:05;;;;;;;27.53;14.83;;;9.00;92.80;;;7.85;60.92;99808.72;10373598;28;96432;-90
2022/04/21 07:00:09;;;;;;;20.10;14.07;;;9.20;91.70;;;8.12;60.77;99805.00;10368438;28;96965;-90
2022/04/21 07:05:14;;;;;;;21.20;14.37;;;9.50;91.40;;;8.42;59.79;99805.44;10367615;28;97547;-89
2022/04/21 07:10:19;;;;;;;17.13;12.00;;;9.80;90.80;;;8.72;59.65;99804.78;10329798;28;96635;-88
2022/04/21 07:15:22;;;;;;;20.77;12.70;;;10.00;90.30;;;8.97;58.36;99795.00;10333442;28;96662;-92
2022/04/21 07:20:26;;;;;;;20.10;14.03;;;10.30;89.00;;;9.37;59.11;99802.06;10282184;28;96429;-91
2022/04/21 07:25:30;;;;;;;19.77;12.40;;;10.50;88.70;;;9.98;57.78;99796.19;10313282;28;96466;-92
2022/04/21 07:30:33;;;;;;;16.83;10.87;;;10.90;88.40;;;10.78;54.92;99786.06;10300258;28;96408;-91
2022/04/21 07:35:37;;;;;;;15.60;10.47;;;11.30;86.20;;;12.03;51.85;99775.56;10298953;28;96375;-90
2022/04/21 07:40:41;;;;;;;22.80;10.57;;;11.70;84.20;;;13.20;48.58;99780.53;10317658;28;98646;-90
2022/04/21 07:45:49;;;;;;;11.87;9.07;;;12.30;82.40;;;14.11;46.71;99763.34;10296737;28;96646;-89
2022/04/21 07:50:52;;;;;;;11.37;7.90;;;12.70;80.10;;;15.04;45.22;99760.78;10297006;28;96651;-91
2022/04/21 07:55:57;;;;;;;16.00;11.17;;;13.30;77.90;;;14.92;42.85;99760.56;10332059;28;96604;-88
2022/04/21 08:01:00;;;;;;;10.23;7.83;;;13.80;74.40;;;14.49;43.67;99762.81;10310938;28;97502;-89
2022/04/21 08:06:05;;;;;;;11.53;8.63;;;14.00;71.30;;;14.11;43.65;99754.50;10350175;28;97442;-89
2022/04/21 08:11:08;;;;;;;12.40;8.10;;;14.20;68.70;;;13.85;43.81;99756.06;10355955;28;96979;-89
2022/04/21 08:16:11;;;;;;;12.70;7.03;;;14.40;66.70;;;13.81;43.88;99744.13;10332425;28;98461;-89
2022/04/21 08:21:14;;;;;;;14.10;8.27;;;14.60;65.60;;;13.82;43.22;99744.97;10344959;28;96526;-89
2022/04/21 08:37:02;;;;;;;10.68;7.85;;;15.20;60.80;;;14.36;41.93;99731.53;10351932;28;96592;-89
2022/04/21 08:42:10;;;;;;;6.85;5.80;;;15.50;59.40;;;14.94;40.09;99728.28;10327152;28;96621;-88
2022/04/21 08:47:18;;;;;;;6.97;5.30;;;15.80;58.20;;;15.29;38.55;99725.31;10338591;28;97313;-89
2022/04/21 08:52:22;;;;;;;7.90;6.30;;;16.10;56.60;;;15.35;38.87;99716.44;10356912;28;97474;-89
2022/04/21 08:57:26;;;;;;;9.52;5.70;;;16.30;55.60;;;15.63;35.81;99726.91;10346821;28;96941;-90
2022/04/21 09:02:41;;;;;;;7.13;5.18;;;16.60;52.80;;;16.36;35.35;99718.47;10345786;28;97326;-86
2022/04/21 09:07:52;;;;;;;8.07;6.32;;;16.90;52.80;;;16.67;34.83;99718.41;10311201;28;97519;-86
2022/04/21 09:13:15;;;;;;;8.88;5.40;;;17.20;51.60;;;16.72;34.02;99726.66;10329336;28;96484;-85
2022/04/21 09:18:18;;;;;;;6.13;4.50;;;17.50;50.10;;;16.78;33.23;99722.28;10346743;28;96537;-85
2022/04/21 09:23:32;;;;;;;4.68;3.60;;;17.80;48.80;;;17.05;32.68;99721.00;10331855;28;98662;-89
2022/04/21 09:28:35;;;;;;;5.28;3.03;;;18.10;47.50;;;17.18;32.60;99717.38;10390559;28;96489;-89
2022/04/21 09:33:44;;;;;;;6.15;4.93;;;18.30;47.40;;;16.82;32.00;99718.13;10307524;28;96615;-88
2022/04/21 09:39:03;;;;;;;5.43;3.63;;;18.20;46.30;;;16.69;33.08;99721.72;10314961;28;96620;-89
2022/04/21 09:49:44;;;;;;;5.43;3.00;;;18.10;45.90;;;17.03;31.29;99711.50;10322440;28;97543;-86
2022/04/21 09:54:47;;;;;;;4.22;2.83;;;18.20;44.90;;;17.08;31.63;99709.81;10323932;28;96581;-90
2022/04/21 09:59:51;;;;;;;2.92;2.40;;;18.50;45.30;;;17.62;30.77;99705.47;10360945;28;97601;-90
2022/04/21 10:04:56;;;;;;;5.80;2.88;;;18.90;44.50;;;17.96;30.23;99708.59;10314691;28;97633;-90
2022/04/21 10:09:59;;;;;;;5.10;2.90;;;19.30;44.30;;;18.05;29.71;99687.59;10348305;28;97163;-90
2022/04/21 10:15:04;;;;;;;4.15;2.95;;;19.30;43.40;;;18.24;29.27;99683.81;10361543;28;97360;-91
2022/04/21 10:20:08;;;;;;;4.85;2.70;;;19.50;42.20;;;18.31;29.49;99676.44;10318993;28;96683;-90
2022/04/21 10:25:11;;;;;;;3.88;2.53;;;19.60;42.30;;;18.38;29.07;99677.16;10372829;28;97350;-91
2022/04/21 10:30:20;;;;;;;4.07;2.45;;;19.60;42.30;;;18.73;28.64;99675.59;10323868;28;96692;-91
2022/04/21 10:35:23;;;;;;;5.03;2.95;;;19.80;41.90;;;18.76;28.22;99673.22;10292457;28;96520;-91
2022/04/21 10:40:29;;;;;;;4.15;2.83;;;19.70;41.10;;;18.68;27.24;99677.09;10302845;28;96887;-91
2022/04/21 10:45:32;;;;;;;3.38;2.67;;;19.60;40.60;;;18.25;27.32;99660.41;10338214;28;96717;-90
2022/04/21 10:50:37;;;;;;;4.43;2.80;;;19.30;40.40;;;17.77;27.49;99664.81;10304759;28;96499;-91
2022/04/21 11:01:12;;;;;;;3.70;2.53;;;18.90;41.30;;;18.16;28.19;99641.91;10291560;28;96637;-91
2022/04/21 11:06:16;;;;;;;4.63;2.83;;;19.10;41.00;;;18.42;26.80;99645.25;10331732;28;96590;-89
2022/04/21 11:11:46;;;;;;;3.63;2.88;;;19.30;40.10;;;18.85;27.39;99636.84;10329453;28;97656;-91
2022/04/21 11:16:49;;;;;;;4.77;2.80;;;19.60;41.10;;;19.35;26.35;99625.50;10347970;28;97358;-89
2022/04/21 11:21:52;;;;;;;3.22;2.55;;;20.20;40.20;;;20.01;26.26;99612.47;10295313;28;96700;-91
2022/04/21 11:26:59;;;;;;;3.70;2.20;;;20.90;39.70;;;20.74;25.53;99618.75;10306762;28;96621;-91
2022/04/21 11:32:02;;;;;;;3.72;2.22;;;21.60;38.00;;;21.48;23.83;99607.56;10317568;28;98553;-91
2022/04/21 11:37:06;;;;;;;3.08;2.60;;;22.30;37.60;;;21.70;23.41;99599.41;10291495;28;97826;-91
2022/04/21 11:42:09;;;;;;;4.32;2.03;;;22.60;36.40;;;22.10;22.33;99599.81;10310695;28;96532;-90
2022/04/21 11:47:19;;;;;;;2.53;1.98;;;22.90;36.10;;;22.61;22.74;99599.34;10325304;28;96539;-91
2022/04/21 11:52:31;;;;;;;2.78;1.98;;;23.20;36.40;;;23.07;21.40;99596.94;10367256;28;97006;-91
2022/04/21 11:57:44;;;;;;;6.63;2.50;;;23.70;34.70;;;22.62;21.86;99593.72;10315358;28;96468;-90
2022/04/21 12:08:18;;;;;;;2.70;2.10;;;23.40;33.50;;;22.42;21.29;99583.53;10324757;28;96847;-90
2022/04/21 12:13:21;;;;;;;3.47;2.45;;;23.30;34.40;;;22.25;22.13;99579.34;10354965;28;96991;-90
2022/04/21 12:18:24;;;;;;;2.95;1.98;;;23.10;34.60;;;22.27;21.85;99577.22;10310123;28;97468;-90
2022/04/21 12:23:28;;;;;;;4.55;2.63;;;23.00;34.60;;;21.70;21.47;99575.06;10319013;28;96588;-90
2022/04/21 12:28:47;;;;;;;5.18;2.25;;;22.60;34.50;;;21.70;22.66;99569.66;10325822;28;97255;-91
2022/04/21 12:33:50;;;;;;;3.50;2.40;;;22.30;35.40;;;21.79;22.98;99562.72;10295153;28;96417;-91
2022/04/21 12:39:03;;;;;;;3.70;2.85;;;22.30;35.80;;;21.63;23.34;99562.56;10354764;28;96724;-90
2022/04/21 12:44:27;;;;;;;4.45;3.10;;;22.10;36.20;;;21.13;22.83;99570.13;10314679;28;97382;-90
2022/04/21 12:50:07;;;;;;;3.50;2.70;;;21.90;35.60;;;20.54;23.86;99582.31;10320170;28;97160;-91
2022/04/21 12:55:19;;;;;;;7.15;3.97;;;21.70;36.10;;;20.23;25.13;99580.19;10353715;28;96628;-91
2022/04/21 13:00:22;;;;;;;4.75;3.33;;;21.80;36.80;;;20.46;24.16;99577.34;10297901;28;96600;-90
2022/04/21 13:05:25;;;;;;;4.05;3.13;;;22.20;36.00;;;20.53;23.41;99577.97;10338364;28;96881;-89
2022/04/21 13:10:29;;;;;;;5.10;3.20;;;22.60;35.40;;;20.80;24.35;99574.56;10375076;28;96467;-91
2022/04/21 13:15:32;;;;;;;5.72;3.50;;;23.00;35.20;;;20.92;24.78;99560.94;10346858;28;96572;-90
2022/04/21 13:25:59;;;;;;;5.55;4.50;;;23.40;35.00;;;21.43;24.74;99556.16;10294081;28;96891;-91
2022/04/21 13:36:47;;;;;;;6.10;3.97;;;23.80;35.30;;;22.01;23.87;99563.47;10293417;28;96727;-87
2022/04/21 13:41:50;;;;;;;4.45;3.55;;;24.10;34.90;;;22.35;23.27;99560.50;10292389;28;96896;-88
2022/04/21 13:46:55;;;;;;;4.32;3.20;;;24.40;34.70;;;22.74;23.37;99549.34;10305736;28;97398;-87
2022/04/21 13:51:59;;;;;;;3.60;2.50;;;24.60;34.90;;;23.09;21.56;99554.13;10339440;28;96717;-87
2022/04/21 13:57:03;;;;;;;3.35;2.58;;;25.00;33.40;;;23.24;21.08;99549.56;10361888;28;97265;-89
2022/04/21 14:02:06;;;;;;;6.57;2.72;;;25.20;33.10;;;23.24;21.88;99555.00;10330281;28;96511;-90
2022/04/21 14:07:10;;;;;;;4.95;3.08;;;25.10;33.30;;;23.26;21.54;99557.44;10329979;28;96553;-90
2022/04/21 14:12:13;;;;;;;3.72;2.80;;;25.10;33.00;;;23.19;22.09;99540.59;10330028;28;96538;-89
2022/04/21 14:17:16;;;;;;;4.35;2.70;;;25.00;33.30;;;22.54;21.29;99542.72;10333930;28;97278;-89
2022/04/21 14:22:19;;;;;;;3.15;2.50;;;24.50;33.00;;;22.28;22.55;99551.78;10294563;28;97029;-89
2022/04/21 14:27:22;;;;;;;3.47;2.40;;;24.00;33.80;;;22.31;22.85;99537.72;10289394;28;96902;-89
2022/04/21 14:32:25;;;;;;;2.72;2.28;;;23.90;34.40;;;22.30;23.32;99536.09;10322209;28;97285;-90
2022/04/21 14:48:12;;;;;;;4.85;2.47;;;23.70;34.50;;;22.51;22.70;99545.97;10310965;28;97120;-88
2022/04/21 14:53:15;;;;;;;4.85;3.50;;;23.90;34.00;;;22.02;22.89;99546.16;10300282;28;96695;-88
2022/04/21 14:58:21;;;;;;;6.07;4.45;;;23.70;34.30;;;20.87;23.37;99556.31;10317934;28;96634;-88
2022/04/21 15:03:24;;;;;;;4.63;3.30;;;22.70;34.60;;;20.38;24.89;99547.22;10331395;28;96630;-88
2022/04/21 15:08:27;;;;;;;4.93;3.00;;;22.10;35.70;;;20.56;25.01;99558.56;10317247;28;96507;-89
2022/04/21 15:13:31;;;;;;;6.20;3.17;;;22.10;36.20;;;20.53;25.33;99553.69;10302103;28;96577;-89
2022/04/21 15:18:34;;;;;;;9.32;5.40;;;22.00;36.10;;;20.46;25.09;99550.34;10351686;28;97479;-89
2022/04/21 15:23:37;;;;;;;11.60;6.47;;;22.00;36.50;;;20.65;25.59;99544.66;10327195;28;96421;-90
2022/04/21 15:28:40;;;;;;;9.40;5.15;;;22.00;36.80;;;20.77;24.81;99537.28;10380503;28;96515;-90
2022/04/21 15:33:43;;;;;;;13.48;7.03;;;22.10;36.50;;;20.87;25.45;99542.81;10332621;28;97343;-89
2022/04/21 15:38:49;;;;;;;8.90;5.95;;;22.10;36.70;;;20.85;25.08;99543.03;10298148;28;98487;-85
2022/04/21 15:43:52;;;;;;;8.82;5.93;;;22.10;36.60;;;21.10;24.87;99534.41;10332634;28;96488;-85
2022/04/21 15:48:55;;;;;;;9.85;5.05;;;22.20;36.50;;;21.18;24.64;99529.66;10321599;28;98513;-85
2022/04/21 15:59:27;;;;;;;8.73;3.70;;;22.40;36.00;;;20.69;24.28;99525.03;10336172;28;96660;-85
2022/04/21 16:04:30;;;;;;;4.57;3.22;;;22.00;35.80;;;20.51;24.01;99528.84;10335336;28;96557;-85
2022/04/21 16:09:34;;;;;;;7.50;4.10;;;21.80;35.90;;;20.27;24.89;99524.66;10298598;28;96741;-85
2022/04/21 16:14:38;;;;;;;7.63;2.85;;;21.50;36.20;;;20.12;25.20;99525.25;10313715;28;96972;-84
2022/04/21 16:19:50;;;;;;;7.07;3.90;;;21.30;36.40;;;19.63;25.80;99521.50;10364888;28;98408;-85
2022/04/21 16:24:53;;;;;;;9.95;4.25;;;21.00;36.70;;;18.96;26.46;99528.31;10316572;28;99316;-84
2022/04/21 16:29:56;;;;;;;5.65;3.40;;;20.50;37.30;;;18.35;27.09;99535.06;10298332;28;97367;-85
2022/04/21 16:34:59;;;;;;;4.15;3.50;;;19.90;37.80;;;17.84;28.04;99535.72;10298164;28;96737;-85
2022/04/21 16:40:02;;;;;;;5.32;3.78;;;19.40;38.50;;;17.41;28.85;99535.94;10318690;28;97865;-84
2022/04/21 16:45:06;;;;;;;7.00;3.88;;;18.90;39.20;;;17.03;29.46;99539.72;10378232;28;96620;-84
2022/04/21 16:50:09;;;;;;;8.32;4.95;;;18.60;39.70;;;16.65;29.80;99551.50;10309182;28;98283;-84
2022/04/21 16:55:13;;;;;;;8.82;5.38;;;18.20;40.10;;;16.32;30.40;99544.63;10324837;28;96735;-84
2022/04/21 17:02:54;;;;;;;6.82;4.22;;;17.80;40.50;;;16.03;30.92;99546.13;10321355;28;97110;-84
2022/04/21 17:05:39;;;;;;;6.10;3.97;;;17.60;41.00;;;15.75;31.42;99543.84;10334728;28;96570;-84
2022/04/21 17:10:42;;;;;;;5.15;3.35;;;17.30;41.30;;;15.49;32.07;99560.91;10340183;28;96618;-84
2022/04/21 17:15:47;;;;;;;6.82;3.38;;;17.00;41.50;;;15.24;32.87;99552.00;10342024;28;96825;-84
2022/04/21 17:20:50;;;;;;;6.05;3.55;;;16.80;42.10;;;14.99;33.14;99554.53;10339780;28;98242;-84
2022/04/21 17:25:53;;;;;;;8.82;4.05;;;16.50;42.30;;;14.71;33.91;99553.00;10338579;28;96411;-84
2022/04/21 17:30:56;;;;;;;9.53;6.47;;;16.30;43.00;;;14.43;34.47;99555.09;10336516;28;97842;-83
2022/04/21 17:35:59;;;;;;;13.73;7.77;;;16.00;43.50;;;14.12;35.03;99559.25;10326845;28;96839;-84
2022/04/21 17:41:02;;;;;;;23.97;11.30;;;15.80;43.90;;;13.74;36.49;99572.41;10313071;28;96467;-84
2022/04/21 17:46:20;;;;;;;6.73;4.40;;;15.40;44.30;;;13.38;37.20;99568.22;10313946;28;96981;-83
2022/04/21 17:51:23;;;;;;;8.27;4.70;;;15.10;45.10;;;13.07;38.06;99576.72;10314122;28;96647;-83
2022/04/21 17:56:26;;;;;;;15.37;5.07;;;14.80;45.70;;;12.81;38.70;99585.38;10292601;28;97442;-84
2022/04/21 18:01:30;;;;;;;9.30;5.70;;;14.50;46.40;;;12.55;39.56;99595.91;10336264;28;97345;-83
2022/04/21 18:06:33;;;;;;;7.93;5.43;;;14.20;47.10;;;12.30;39.89;99590.19;10324549;28;96726;-83
2022/04/21 18:11:37;;;;;;;8.13;4.33;;;13.90;47.50;;;12.09;40.39;99592.88;10310765;28;96525;-83
2022/04/21 18:16:40;;;;;;;5.70;4.37;;;13.70;48.00;;;11.89;40.81;99593.53;10315393;28;96574;-83
2022/04/21 18:21:44;;;;;;;7.10;4.20;;;13.50;48.40;;;11.73;41.05;99593.75;10311769;28;98618;-83
2022/04/21 18:26:49;;;;;;;6.33;3.93;;;13.30;49.00;;;11.57;41.30;99591.34;10328843;28;97350;-83
2022/04/21 18:31:52;;;;;;;7.10;4.70;;;13.10;49.40;;;11.38;41.89;99595.44;10323797;28;97203;-84
2022/04/21 18:36:55;;;;;;;7.93;4.30;;;13.00;49.90;;;11.21;42.20;99602.81;10319335;28;96638;-84
2022/04/21 18:42:02;;;;;;;9.47;4.77;;;12.80;50.00;;;11.04;42.37;99612.03;10331369;28;96613;-84
2022/04/21 18:47:05;;;;;;;10.80;6.07;;;12.70;50.20;;;10.84;42.75;99620.53;10334148;28;96624;-84
2022/04/21 18:52:09;;;;;;;8.90;5.50;;;12.50;50.70;;;10.64;44.32;99625.59;10302980;28;97794;-84
2022/04/21 18:57:12;;;;;;;8.47;4.93;;;12.30;51.90;;;10.42;45.67;99621.97;10310947;28;96753;-84
2022/04/21 19:02:15;;;;;;;11.43;6.43;;;12.10;52.70;;;10.20;46.11;99620.19;10319875;28;98442;-83
2022/04/21 19:07:18;;;;;;;12.40;6.20;;;11.80;53.20;;;10.00;46.75;99619.81;10313750;28;98572;-84
2022/04/21 19:12:21;;;;;;;15.47;7.30;;;11.70;53.80;;;9.80;47.07;99611.53;10326853;28;97397;-84
2022/04/21 19:17:24;;;;;;;10.37;6.20;;;11.50;54.10;;;9.62;48.29;99624.25;10332130;28;96622;-84
2022/04/21 19:22:28;;;;;;;8.43;5.70;;;11.30;55.60;;;9.48;48.55;99622.38;10307419;28;96644;-84
2022/04/21 19:27:42;;;;;;;20.00;8.80;;;11.10;55.10;;;9.36;50.34;99629.88;10306362;28;96730;-84
2022/04/21 19:32:46;;;;;;;17.83;8.50;;;11.00;55.50;;;9.24;50.34;99632.09;10304678;28;97269;-84
2022/04/21 19:37:50;;;;;;;14.23;9.00;;;10.90;56.40;;;9.08;51.10;99626.84;10336076;28;96494;-83
2022/04/21 19:42:53;;;;;;;15.63;9.30;;;10.70;57.10;;;8.93;51.42;99623.25;10310156;28;96500;-83
2022/04/21 19:47:57;;;;;;;15.53;7.63;;;10.60;57.80;;;8.79;51.54;99617.69;10317892;28;97184;-84
2022/04/21 19:53:00;;;;;;;15.07;6.43;;;10.50;57.80;;;8.68;51.85;99623.34;10318724;28;98501;-84
2022/04/21 19:58:04;;;;;;;13.17;6.93;;;10.30;58.30;;;8.55;52.32;99623.88;10338482;28;96495;-83
2022/04/21 20:03:07;;;;;;;12.53;5.97;;;10.20;58.70;;;8.41;52.86;99626.38;10385442;27;96520;-82
2022/04/21 20:13:33;;;;;;;8.00;5.33;;;9.90;59.60;;;8.14;53.84;99615.13;10300881;28;96819;-84
2022/04/21 20:18:42;;;;;;;7.53;5.80;;;9.80;59.80;;;8.00;54.33;99610.50;10327049;28;96860;-84
2022/04/21 20:23:44;;;;;;;9.30;5.30;;;9.70;60.40;;;7.90;54.64;99613.28;10319162;28;96467;-83
2022/04/21 20:28:48;;;;;;;8.33;5.70;;;9.60;60.90;;;7.82;54.44;99613.31;10331956;28;97291;-83
2022/04/21 20:33:51;;;;;;;8.70;6.03;;;9.50;61.00;;;7.73;54.86;99607.16;10334926;28;96522;-83
2022/04/21 20:38:54;;;;;;;11.00;5.70;;;9.40;61.30;;;7.68;54.41;99606.03;10311847;28;96578;-83
2022/04/21 20:43:57;;;;;;;7.63;4.80;;;9.30;61.30;;;7.61;54.41;99605.81;10328549;28;96457;-83
2022/04/21 20:49:00;;;;;;;9.50;5.27;;;9.30;61.10;;;7.57;54.16;99601.88;10327961;28;96557;-82
2022/04/21 20:54:03;;;;;;;9.53;5.97;;;9.20;61.20;;;7.54;55.94;99599.53;10333354;28;96711;-82
2022/04/21 20:59:06;;;;;;;10.87;5.23;;;9.20;62.70;;;7.54;55.60;99604.81;10337969;28;98164;-82
2022/04/21 21:04:09;;;;;;;10.17;5.07;;;9.20;62.80;;;7.63;54.80;99601.22;10303301;28;99068;-83
2022/04/21 21:09:12;;;;;;;8.13;5.20;;;9.20;62.10;;;7.69;54.71;99603.22;10307011;28;96575;-83
2022/04/21 21:14:16;;;;;;;8.13;4.80;;;9.20;62.10;;;7.70;54.80;99601.38;10333185;28;96634;-83
2022/04/21 21:19:39;;;;;;;8.97;4.73;;;9.20;61.80;;;7.70;54.87;99593.47;10335474;28;96688;-83
2022/04/21 21:24:42;;;;;;;8.07;5.10;;;9.20;62.50;;;7.69;54.45;99592.63;10331516;28;97315;-83
2022/04/21 21:29:45;;;;;;;8.20;5.33;;;9.20;61.90;;;7.65;54.68;99580.72;10335650;28;96546;-84
2022/04/21 21:34:48;;;;;;;10.93;6.30;;;9.20;62.10;;;7.58;55.13;99600.88;10344165;28;97592;-83
2022/04/21 21:39:51;;;;;;;24.93;11.00;;;9.20;62.10;;;7.50;55.61;99607.00;10329770;28;96600;-83
2022/04/21 21:44:53;;;;;;;10.87;6.23;;;9.20;63.80;;;7.35;56.48;99605.13;10294450;28;96429;-83
2022/04/21 21:55:19;;;;;;;10.52;5.88;;;8.90;63.80;;;7.17;56.35;99611.34;10329304;28;96506;-83
2022/04/21 22:00:47;;;;;;;9.97;6.20;;;8.80;64.00;;;7.13;56.12;99612.66;10323546;28;97320;-83
2022/04/21 22:05:50;;;;;;;7.43;5.13;;;8.70;63.80;;;7.07;57.12;99615.09;10320418;28;97465;-83
2022/04/21 22:10:53;;;;;;;10.13;5.37;;;8.70;64.10;;;6.93;57.73;99616.53;10327920;28;96516;-83
2022/04/21 22:15:57;;;;;;;15.80;6.17;;;8.60;65.40;;;6.77;58.04;99612.00;10345067;28;98176;-83
2022/04/21 22:21:00;;;;;;;9.33;6.03;;;8.50;65.50;;;6.69;58.11;99606.69;10358832;28;96487;-83
2022/04/21 22:26:03;;;;;;;11.63;6.77;;;8.40;65.50;;;6.60;58.07;99603.19;10357675;28;96597;-83
2022/04/21 22:31:06;;;;;;;10.27;5.93;;;8.30;66.00;;;6.50;58.69;99604.28;10324639;28;98177;-83
2022/04/21 22:36:10;;;;;;;14.80;6.80;;;8.20;67.20;;;6.37;59.00;99605.53;10320345;28;97552;-83
2022/04/21 22:41:14;;;;;;;10.77;6.63;;;8.10;66.80;;;6.25;58.97;99598.03;10324247;28;96622;-83